Stanberry, Missouri
Current Conditions -  °F | °C
As of 6:53 PM on Friday 31 Oct 2014 (Local Time) from KSTJ Reporting Station
Clear Clear  
Wind Chill: 27°   Ceiling: Unl
Heat Index: 34°   Visibility: 10mi
Dew Point: 19°   Wind: 8mph
Humidity: 54%   Direction: 10°N
Pressure: 30.46"   Gusts: NA
Location:  40.22°N, 94.54°W
Report Text: KSTJ 312353Z AUTO 01007KT 10SM CLR 01/M07 A3046 RMK AO2 SLP321 T00111072 10083 20011 56006
Loading
Personal Weather Stations






























Interactive Weather Map
Tropical Storm Tracking
New forecast layout! Learn more

10-Day Weather Forecast

Advertisements
Track Severe Weather on mobile